Terminal Aerodrome Forecast
Issued by NWS

Home | Current Version | Previous Version | Text Only | Print | Product List | Glossary On
Versions: 1 2 3 4 5 6 7 8 9 10 11 12 13 14 15
000
FTPA31 PHFO 302330
TAFHTO
TAF
PHTO 302330Z 3100/3124 07008KT P6SM FEW030 SCT045
     FM310500 24006KT P6SM VCSH SCT025 BKN040
     FM312000 08007KT P6SM SCT025 SCT050=

USA.gov is the U.S. government's official web portal to all federal, state and local government web resources and services.